Total Records : 58548    Days : 2610    Home  | Null  |   Close  

DNA Weather Station System

(Weather Station data from July 2017, rainfall from 2014)            Station location  |  Station pictures

Year:     Month:      Season: 
Dates Between:   to  
  Summary graph          Stress table
Date & Time Temp. Low Temp Hi Temp Humidity Dew Point Wind Dir. Hi Hi Dir Heat Index Bar Rain Rain Rate Solar Rad. Solar Energy UV Index Hi UV
2023Dec02 00:00 23.2 22.8 23.6  67.0 16.8 4.8 SE 14.5 SSE 23.9 28.47 0.0 0.0 0 0.0 0.0 0.0
2023Dec02 01:00 22.5 22.2 22.8  71.0 17.0 4.8 SE 14.5 ESE 23.1 28.46 0.0 0.0 0 0.0 0.0 0.0
2023Dec02 02:00 21.9 21.7 22.2  76.0 17.5 6.4 SSE 14.5 SE 22.5 28.45 0.0 0.0 0 0.0 0.0 0.0
2023Dec02 03:00 21.5 21.3 21.7  81.0 18.1 4.8 SSE 16.1 SSE 22.2 28.45 0.0 0.0 0 0.0 0.0 0.0
2023Dec02 04:00 21.2 21.1 21.3  83.0 18.2 3.2 SSE 12.9 SE 21.9 28.46 0.0 0.0 0 0.0 0.0 0.0
2023Dec02 05:00 21.1 20.9 21.1  83.0 18.1 3.2 SSE 12.9 SSE 21.8 28.47 0.0 0.0 0 0.0 0.0 0.0
2023Dec02 06:00 20.9 20.8 20.9  84.0 18.1 3.2 SSE 12.9 SSE 21.7 28.48 0.0 0.0 6 0.52 0.0 0.0
2023Dec02 07:00 21.4 20.8 22.2  78.0 17.4 1.6 S 8.0 S 21.9 28.50 0.0 0.0 94 8.09 0.0 0.0
2023Dec02 08:00 23.1 22.2 24.0  67.0 16.6 4.8 S 17.7 S 23.7 28.51 0.0 0.0 314 27.01 0.7 1.1
2023Dec02 09:00 24.6 23.9 25.4  65.0 17.5 4.8 SSE 16.1 SSE 25.2 28.50 0.0 0.0 457 39.31 1.5 2.0
2023Dec02 10:00 27.2 25.4 28.2  60.0 18.7 3.2 SE 17.7 SSE 28.1 28.48 0.0 0.0 673 57.89 2.6 3.1
2023Dec02 11:00 28.7 27.7 29.7  53.0 18.2 4.8 ENE 19.3 NE 29.9 28.46 0.0 0.0 738 63.48 3.2 3.5
2023Dec02 12:00 29.4 28.8 30.1  46.0 16.6 6.4 ESE 22.5 ENE 30.1 28.43 0.0 0.0 750 64.51 3.3 3.5
2023Dec02 13:00 30.1 29.7 31.1  46.0 17.2 4.8 ENE 19.3 NE 30.8 28.40 0.0 0.0 703 60.47 2.9 3.3
2023Dec02 14:00 30.3 29.8 31.1  49.0 18.4 6.4 SE 19.3 SSE 31.6 28.39 0.0 0.0 558 47.99 1.8 2.4
2023Dec02 15:00 29.5 28.9 30.3  54.0 19.2 6.4 SE 20.9 SSE 31.1 28.40 0.0 0.0 348 29.93 0.8 1.3
2023Dec02 16:00 28.1 27.6 29.0  57.0 18.8 4.8 SE 19.3 SE 29.2 28.41 0.0 0.0 128 11.01 0.0 0.5
2023Dec02 17:00 26.9 26.4 27.6  61.0 18.8 1.6 ESE 16.1 E 27.9 28.43 0.0 0.0 14 1.2 0.0 0.0
2023Dec02 18:00 26.0 25.5 26.4  64.0 18.7 1.6 ESE 11.3 ESE 26.8 28.45 0.0 0.0 0 0.0 0.0 0.0
2023Dec02 19:00 25.1 24.8 25.5  67.0 18.6 1.6 ESE 9.7 E 26.0 28.47 0.0 0.0 0 0.0 0.0 0.0
2023Dec02 20:00 24.8 24.7 24.8  68.0 18.5 1.6 ESE 9.7 ESE 25.7 28.48 0.0 0.0 0 0.0 0.0 0.0
2023Dec02 21:00 24.3 24.1 24.7  71.0 18.7 1.6 E 11.3 ESE 25.4 28.49 0.0 0.0 0 0.0 0.0 0.0
2023Dec02 22:00 24.0 23.9 24.1  71.0 18.4 1.6 E 12.9 ENE 25.0 28.48 0.0 0.0 0 0.0 0.0 0.0
2023Dec02 23:00 23.7 23.7 23.9  71.0 18.1 1.6 E 11.3 ESE 24.7 28.47 0.0 0.0 0 0.0 0.0 0.0
Total: 0.0